sensor_id;sensor_type;location;lat;lon;timestamp;pressure;altitude;pressure_sealevel;temperature;humidity
19600;BME280;9947;57.722;12.012;2023-03-14T00:01:22;97081.00;;;5.03;100.00
19600;BME280;9947;57.722;12.012;2023-03-14T00:03:50;97082.50;;;5.05;100.00
19600;BME280;9947;57.722;12.012;2023-03-14T00:06:26;97083.84;;;5.01;100.00
19600;BME280;9947;57.722;12.012;2023-03-14T00:08:53;97087.00;;;5.05;100.00
19600;BME280;9947;57.722;12.012;2023-03-14T00:11:21;97097.22;;;5.01;100.00
19600;BME280;9947;57.722;12.012;2023-03-14T00:13:48;97087.88;;;4.97;100.00
19600;BME280;9947;57.722;12.012;2023-03-14T00:16:19;97108.63;;;4.95;100.00
19600;BME280;9947;57.722;12.012;2023-03-14T00:18:46;97108.63;;;4.95;100.00
19600;BME280;9947;57.722;12.012;2023-03-14T00:21:15;97103.28;;;4.95;100.00
19600;BME280;9947;57.722;12.012;2023-03-14T00:23:42;97110.28;;;4.96;100.00
19600;BME280;9947;57.722;12.012;2023-03-14T00:26:11;97092.41;;;4.88;100.00
19600;BME280;9947;57.722;12.012;2023-03-14T00:28:39;97100.59;;;4.87;100.00
19600;BME280;9947;57.722;12.012;2023-03-14T00:31:07;97108.78;;;4.85;100.00
19600;BME280;9947;57.722;12.012;2023-03-14T00:33:43;97117.34;;;4.81;100.00
19600;BME280;9947;57.722;12.012;2023-03-14T00:36:12;97103.13;;;4.80;100.00
19600;BME280;9947;57.722;12.012;2023-03-14T00:38:41;97108.16;;;4.75;100.00
19600;BME280;9947;57.722;12.012;2023-03-14T00:41:10;97113.50;;;4.75;100.00
19600;BME280;9947;57.722;12.012;2023-03-14T00:43:38;97117.53;;;4.71;100.00
19600;BME280;9947;57.722;12.012;2023-03-14T00:46:05;97124.88;;;4.77;100.00
19600;BME280;9947;57.722;12.012;2023-03-14T00:48:33;97126.88;;;4.75;100.00
19600;BME280;9947;57.722;12.012;2023-03-14T00:51:00;97136.59;;;4.76;100.00
19600;BME280;9947;57.722;12.012;2023-03-14T00:53:27;97143.78;;;4.76;100.00
19600;BME280;9947;57.722;12.012;2023-03-14T00:55:55;97168.34;;;4.79;100.00
19600;BME280;9947;57.722;12.012;2023-03-14T00:58:23;97167.38;;;4.72;100.00
19600;BME280;9947;57.722;12.012;2023-03-14T01:00:50;97166.69;;;4.70;100.00
19600;BME280;9947;57.722;12.012;2023-03-14T01:03:17;97160.84;;;4.75;100.00
19600;BME280;9947;57.722;12.012;2023-03-14T01:05:44;97165.34;;;4.66;100.00
19600;BME280;9947;57.722;12.012;2023-03-14T01:08:11;97178.72;;;4.58;100.00
19600;BME280;9947;57.722;12.012;2023-03-14T01:10:38;97179.06;;;4.55;100.00
19600;BME280;9947;57.722;12.012;2023-03-14T01:13:07;97188.91;;;4.54;100.00
19600;BME280;9947;57.722;12.012;2023-03-14T01:15:36;97186.06;;;4.56;100.00
19600;BME280;9947;57.722;12.012;2023-03-14T01:18:04;97185.91;;;4.57;100.00
19600;BME280;9947;57.722;12.012;2023-03-14T01:20:31;97181.22;;;4.51;100.00
19600;BME280;9947;57.722;12.012;2023-03-14T01:22:58;97182.53;;;4.39;100.00
19600;BME280;9947;57.722;12.012;2023-03-14T01:25:25;97187.88;;;4.31;100.00
19600;BME280;9947;57.722;12.012;2023-03-14T01:27:52;97199.41;;;4.23;100.00
19600;BME280;9947;57.722;12.012;2023-03-14T01:30:26;97200.38;;;4.14;100.00
19600;BME280;9947;57.722;12.012;2023-03-14T01:32:53;97200.88;;;4.10;100.00
19600;BME280;9947;57.722;12.012;2023-03-14T01:35:20;97220.56;;;4.00;100.00
19600;BME280;9947;57.722;12.012;2023-03-14T01:37:47;97212.72;;;3.99;100.00
19600;BME280;9947;57.722;12.012;2023-03-14T01:40:14;97214.19;;;3.93;100.00
19600;BME280;9947;57.722;12.012;2023-03-14T01:42:46;97213.81;;;3.88;100.00
19600;BME280;9947;57.722;12.012;2023-03-14T01:48:38;97236.84;;;3.81;100.00
19600;BME280;9947;57.722;12.012;2023-03-14T01:51:16;97246.84;;;3.71;100.00
19600;BME280;9947;57.722;12.012;2023-03-14T01:53:45;97242.25;;;3.63;100.00
19600;BME280;9947;57.722;12.012;2023-03-14T01:56:20;97229.06;;;3.62;100.00
19600;BME280;9947;57.722;12.012;2023-03-14T01:58:50;97228.63;;;3.66;100.00
19600;BME280;9947;57.722;12.012;2023-03-14T02:01:20;97243.25;;;3.62;100.00
19600;BME280;9947;57.722;12.012;2023-03-14T02:03:53;97241.44;;;3.63;100.00
19600;BME280;9947;57.722;12.012;2023-03-14T02:06:23;97237.25;;;3.60;100.00
19600;BME280;9947;57.722;12.012;2023-03-14T02:08:51;97236.06;;;3.55;100.00
19600;BME280;9947;57.722;12.012;2023-03-14T02:11:27;97241.88;;;3.50;100.00
19600;BME280;9947;57.722;12.012;2023-03-14T02:14:01;97233.72;;;3.52;100.00
19600;BME280;9947;57.722;12.012;2023-03-14T02:16:28;97247.06;;;3.52;100.00
19600;BME280;9947;57.722;12.012;2023-03-14T02:18:58;97244.91;;;3.55;100.00
19600;BME280;9947;57.722;12.012;2023-03-14T02:21:30;97245.72;;;3.48;100.00
19600;BME280;9947;57.722;12.012;2023-03-14T02:24:08;97252.03;;;3.47;100.00
19600;BME280;9947;57.722;12.012;2023-03-14T02:26:40;97247.53;;;3.47;100.00
19600;BME280;9947;57.722;12.012;2023-03-14T02:29:10;97246.19;;;3.43;100.00
19600;BME280;9947;57.722;12.012;2023-03-14T02:31:38;97248.47;;;3.38;100.00
19600;BME280;9947;57.722;12.012;2023-03-14T02:34:05;97243.13;;;3.38;100.00
19600;BME280;9947;57.722;12.012;2023-03-14T02:36:32;97230.66;;;3.38;100.00
19600;BME280;9947;57.722;12.012;2023-03-14T02:39:06;97242.44;;;3.36;100.00
19600;BME280;9947;57.722;12.012;2023-03-14T02:41:34;97236.28;;;3.35;100.00
19600;BME280;9947;57.722;12.012;2023-03-14T02:44:01;97240.78;;;3.35;100.00
19600;BME280;9947;57.722;12.012;2023-03-14T02:46:29;97242.44;;;3.36;100.00
19600;BME280;9947;57.722;12.012;2023-03-14T02:48:58;97248.09;;;3.33;100.00
19600;BME280;9947;57.722;12.012;2023-03-14T02:51:29;97247.09;;;3.34;100.00
19600;BME280;9947;57.722;12.012;2023-03-14T02:53:56;97245.78;;;3.38;100.00
19600;BME280;9947;57.722;12.012;2023-03-14T02:56:23;97244.66;;;3.40;100.00
19600;BME280;9947;57.722;12.012;2023-03-14T02:58:50;97248.03;;;3.43;100.00
19600;BME280;9947;57.722;12.012;2023-03-14T03:01:23;97246.94;;;3.35;100.00
19600;BME280;9947;57.722;12.012;2023-03-14T03:03:51;97250.63;;;3.34;100.00
19600;BME280;9947;57.722;12.012;2023-03-14T03:06:19;97259.78;;;3.32;100.00
19600;BME280;9947;57.722;12.012;2023-03-14T03:08:46;97254.59;;;3.30;100.00
19600;BME280;9947;57.722;12.012;2023-03-14T03:11:13;97262.44;;;3.32;100.00
19600;BME280;9947;57.722;12.012;2023-03-14T03:13:40;97268.94;;;3.29;100.00
19600;BME280;9947;57.722;12.012;2023-03-14T03:16:13;97260.09;;;3.29;100.00
19600;BME280;9947;57.722;12.012;2023-03-14T03:18:40;97248.41;;;3.30;100.00
19600;BME280;9947;57.722;12.012;2023-03-14T03:21:09;97258.78;;;3.33;100.00
19600;BME280;9947;57.722;12.012;2023-03-14T03:23:35;97258.09;;;3.31;100.00
19600;BME280;9947;57.722;12.012;2023-03-14T03:26:06;97265.06;;;3.24;100.00
19600;BME280;9947;57.722;12.012;2023-03-14T03:28:32;97257.59;;;3.27;100.00
19600;BME280;9947;57.722;12.012;2023-03-14T03:31:06;97251.94;;;3.30;100.00
19600;BME280;9947;57.722;12.012;2023-03-14T03:33:33;97253.56;;;3.23;100.00
19600;BME280;9947;57.722;12.012;2023-03-14T03:36:00;97257.59;;;3.27;100.00
19600;BME280;9947;57.722;12.012;2023-03-14T03:38:28;97265.59;;;3.27;100.00
19600;BME280;9947;57.722;12.012;2023-03-14T03:40:55;97279.97;;;3.34;100.00
19600;BME280;9947;57.722;12.012;2023-03-14T03:43:22;97274.72;;;3.43;100.00
19600;BME280;9947;57.722;12.012;2023-03-14T03:45:49;97279.66;;;3.37;100.00
19600;BME280;9947;57.722;12.012;2023-03-14T03:48:16;97287.16;;;3.34;100.00
19600;BME280;9947;57.722;12.012;2023-03-14T03:50:49;97294.56;;;3.40;100.00
19600;BME280;9947;57.722;12.012;2023-03-14T03:53:16;97298.13;;;3.49;100.00
19600;BME280;9947;57.722;12.012;2023-03-14T03:55:45;97288.50;;;3.38;100.00
19600;BME280;9947;57.722;12.012;2023-03-14T03:58:12;97289.00;;;3.33;100.00
19600;BME280;9947;57.722;12.012;2023-03-14T04:00:39;97284.03;;;3.38;100.00
19600;BME280;9947;57.722;12.012;2023-03-14T04:03:07;97279.16;;;3.34;100.00
19600;BME280;9947;57.722;12.012;2023-03-14T04:05:34;97295.47;;;3.31;100.00
19600;BME280;9947;57.722;12.012;2023-03-14T04:08:01;97285.28;;;3.26;100.00
19600;BME280;9947;57.722;12.012;2023-03-14T04:10:35;97279.00;;;3.35;100.00
19600;BME280;9947;57.722;12.012;2023-03-14T04:13:03;97287.84;;;3.36;100.00
19600;BME280;9947;57.722;12.012;2023-03-14T04:15:37;97286.00;;;3.36;100.00
19600;BME280;9947;57.722;12.012;2023-03-14T04:18:04;97279.53;;;3.39;100.00
19600;BME280;9947;57.722;12.012;2023-03-14T04:20:34;97291.66;;;3.33;100.00
19600;BME280;9947;57.722;12.012;2023-03-14T04:23:00;97300.34;;;3.35;100.00
19600;BME280;9947;57.722;12.012;2023-03-14T04:25:27;97301.19;;;3.36;100.00
19600;BME280;9947;57.722;12.012;2023-03-14T04:27:54;97292.34;;;3.35;100.00
19600;BME280;9947;57.722;12.012;2023-03-14T04:30:29;97293.66;;;3.31;100.00
19600;BME280;9947;57.722;12.012;2023-03-14T04:32:56;97289.78;;;3.26;100.00
19600;BME280;9947;57.722;12.012;2023-03-14T04:35:23;97293.81;;;3.30;100.00
19600;BME280;9947;57.722;12.012;2023-03-14T04:37:50;97306.00;;;3.32;100.00
19600;BME280;9947;57.722;12.012;2023-03-14T04:40:17;97298.16;;;3.31;100.00
19600;BME280;9947;57.722;12.012;2023-03-14T04:42:44;97308.34;;;3.35;100.00
19600;BME280;9947;57.722;12.012;2023-03-14T04:45:11;97313.31;;;3.30;100.00
19600;BME280;9947;57.722;12.012;2023-03-14T04:47:39;97321.28;;;3.22;100.00
19600;BME280;9947;57.722;12.012;2023-03-14T04:50:07;97326.16;;;3.27;100.00
19600;BME280;9947;57.722;12.012;2023-03-14T04:52:34;97333.16;;;3.28;100.00
19600;BME280;9947;57.722;12.012;2023-03-14T04:55:01;97336.69;;;3.28;100.00
19600;BME280;9947;57.722;12.012;2023-03-14T04:57:28;97334.09;;;3.19;100.00
19600;BME280;9947;57.722;12.012;2023-03-14T05:00:11;97338.91;;;3.15;100.00
19600;BME280;9947;57.722;12.012;2023-03-14T05:02:47;97335.84;;;3.10;100.00
19600;BME280;9947;57.722;12.012;2023-03-14T05:05:15;97339.34;;;3.10;100.00
19600;BME280;9947;57.722;12.012;2023-03-14T05:07:42;97340.66;;;3.06;100.00
19600;BME280;9947;57.722;12.012;2023-03-14T05:10:10;97339.81;;;3.06;100.00
19600;BME280;9947;57.722;12.012;2023-03-14T05:12:37;97335.78;;;3.02;100.00
19600;BME280;9947;57.722;12.012;2023-03-14T05:15:05;97326.72;;;2.95;100.00
19600;BME280;9947;57.722;12.012;2023-03-14T05:17:32;97326.88;;;2.93;100.00
19600;BME280;9947;57.722;12.012;2023-03-14T05:20:00;97335.19;;;2.90;100.00
19600;BME280;9947;57.722;12.012;2023-03-14T05:22:29;97340.38;;;2.92;100.00
19600;BME280;9947;57.722;12.012;2023-03-14T05:24:56;97338.00;;;2.89;100.00
19600;BME280;9947;57.722;12.012;2023-03-14T05:27:24;97342.94;;;2.84;100.00
19600;BME280;9947;57.722;12.012;2023-03-14T05:29:53;97341.94;;;2.85;100.00
19600;BME280;9947;57.722;12.012;2023-03-14T05:32:20;97342.78;;;2.85;100.00
19600;BME280;9947;57.722;12.012;2023-03-14T05:34:47;97349.03;;;2.76;100.00
19600;BME280;9947;57.722;12.012;2023-03-14T05:37:15;97342.72;;;2.77;100.00
19600;BME280;9947;57.722;12.012;2023-03-14T05:39:42;97337.16;;;2.70;100.00
19600;BME280;9947;57.722;12.012;2023-03-14T05:42:09;97340.72;;;2.79;100.00
19600;BME280;9947;57.722;12.012;2023-03-14T05:44:36;97351.25;;;2.81;100.00
19600;BME280;9947;57.722;12.012;2023-03-14T05:47:10;97350.41;;;2.80;100.00
19600;BME280;9947;57.722;12.012;2023-03-14T05:49:37;97353.34;;;2.87;100.00
19600;BME280;9947;57.722;12.012;2023-03-14T05:52:04;97358.09;;;2.83;100.00
19600;BME280;9947;57.722;12.012;2023-03-14T05:54:32;97348.06;;;2.77;100.00
19600;BME280;9947;57.722;12.012;2023-03-14T05:57:01;97354.44;;;2.84;100.00
19600;BME280;9947;57.722;12.012;2023-03-14T05:59:34;97354.91;;;2.79;100.00
19600;BME280;9947;57.722;12.012;2023-03-14T06:02:03;97358.72;;;2.77;100.00
19600;BME280;9947;57.722;12.012;2023-03-14T06:04:30;97354.75;;;2.81;100.00
19600;BME280;9947;57.722;12.012;2023-03-14T06:06:57;97363.91;;;2.78;100.00
19600;BME280;9947;57.722;12.012;2023-03-14T06:09:24;97359.25;;;2.81;100.00
19600;BME280;9947;57.722;12.012;2023-03-14T06:11:52;97364.28;;;2.84;100.00
19600;BME280;9947;57.722;12.012;2023-03-14T06:14:19;97371.13;;;2.86;100.00
19600;BME280;9947;57.722;12.012;2023-03-14T06:16:49;97371.28;;;2.85;100.00
19600;BME280;9947;57.722;12.012;2023-03-14T06:19:18;97384.94;;;2.82;100.00
19600;BME280;9947;57.722;12.012;2023-03-14T06:21:45;97376.47;;;2.86;100.00
19600;BME280;9947;57.722;12.012;2023-03-14T06:24:12;97383.38;;;2.89;100.00
19600;BME280;9947;57.722;12.012;2023-03-14T06:26:39;97385.13;;;2.98;100.00
19600;BME280;9947;57.722;12.012;2023-03-14T06:29:07;97382.59;;;2.96;100.00
19600;BME280;9947;57.722;12.012;2023-03-14T06:31:35;97385.66;;;3.01;100.00
19600;BME280;9947;57.722;12.012;2023-03-14T06:34:02;97379.63;;;2.99;100.00
19600;BME280;9947;57.722;12.012;2023-03-14T06:36:29;97383.81;;;3.02;100.00
19600;BME280;9947;57.722;12.012;2023-03-14T06:38:56;97388.38;;;3.09;100.00
19600;BME280;9947;57.722;12.012;2023-03-14T06:41:23;97389.78;;;3.14;100.00
19600;BME280;9947;57.722;12.012;2023-03-14T06:43:58;97403.97;;;3.14;100.00
19600;BME280;9947;57.722;12.012;2023-03-14T06:46:28;97407.22;;;3.26;100.00
19600;BME280;9947;57.722;12.012;2023-03-14T06:48:54;97412.56;;;3.26;100.00
19600;BME280;9947;57.722;12.012;2023-03-14T06:51:21;97415.00;;;3.19;100.00
19600;BME280;9947;57.722;12.012;2023-03-14T06:53:49;97424.38;;;3.23;100.00
19600;BME280;9947;57.722;12.012;2023-03-14T06:56:16;97425.91;;;3.08;100.00
19600;BME280;9947;57.722;12.012;2023-03-14T06:58:42;97429.25;;;3.10;100.00
19600;BME280;9947;57.722;12.012;2023-03-14T07:01:20;97432.03;;;3.18;100.00
19600;BME280;9947;57.722;12.012;2023-03-14T07:03:48;97426.69;;;3.18;100.00
19600;BME280;9947;57.722;12.012;2023-03-14T07:06:15;97428.66;;;3.16;100.00
19600;BME280;9947;57.722;12.012;2023-03-14T07:08:42;97428.88;;;3.23;100.00
19600;BME280;9947;57.722;12.012;2023-03-14T07:11:09;97428.28;;;3.29;100.00
19600;BME280;9947;57.722;12.012;2023-03-14T07:13:36;97437.66;;;3.33;100.00
19600;BME280;9947;57.722;12.012;2023-03-14T07:16:04;97447.66;;;3.31;100.00
19600;BME280;9947;57.722;12.012;2023-03-14T07:18:31;97441.25;;;3.24;100.00
19600;BME280;9947;57.722;12.012;2023-03-14T07:21:08;97451.47;;;3.28;100.00
19600;BME280;9947;57.722;12.012;2023-03-14T07:23:35;97457.72;;;3.37;100.00
19600;BME280;9947;57.722;12.012;2023-03-14T07:26:02;97455.28;;;3.26;100.00
19600;BME280;9947;57.722;12.012;2023-03-14T07:28:30;97465.41;;;3.22;100.00
19600;BME280;9947;57.722;12.012;2023-03-14T07:30:56;97462.91;;;3.21;100.00
19600;BME280;9947;57.722;12.012;2023-03-14T07:33:23;97466.56;;;3.20;100.00
19600;BME280;9947;57.722;12.012;2023-03-14T07:35:50;97474.72;;;3.18;100.00
19600;BME280;9947;57.722;12.012;2023-03-14T07:38:18;97467.41;;;3.20;100.00
19600;BME280;9947;57.722;12.012;2023-03-14T07:40:45;97474.88;;;3.17;100.00
19600;BME280;9947;57.722;12.012;2023-03-14T07:43:19;97469.00;;;3.13;100.00
19600;BME280;9947;57.722;12.012;2023-03-14T07:45:46;97472.59;;;3.22;100.00
19600;BME280;9947;57.722;12.012;2023-03-14T07:48:14;97477.13;;;3.39;100.00
19600;BME280;9947;57.722;12.012;2023-03-14T07:50:41;97475.66;;;3.45;100.00
19600;BME280;9947;57.722;12.012;2023-03-14T07:53:08;97478.91;;;3.56;100.00
19600;BME280;9947;57.722;12.012;2023-03-14T07:55:36;97471.22;;;3.71;100.00
19600;BME280;9947;57.722;12.012;2023-03-14T07:58:03;97470.22;;;3.72;100.00
19600;BME280;9947;57.722;12.012;2023-03-14T08:00:30;97475.47;;;3.82;100.00
19600;BME280;9947;57.722;12.012;2023-03-14T08:02:56;97481.19;;;3.87;100.00
19600;BME280;9947;57.722;12.012;2023-03-14T08:05:23;97483.09;;;3.94;100.00
19600;BME280;9947;57.722;12.012;2023-03-14T08:07:50;97493.28;;;3.91;100.00
19600;BME280;9947;57.722;12.012;2023-03-14T08:10:17;97500.53;;;4.50;100.00
19600;BME280;9947;57.722;12.012;2023-03-14T08:12:54;97501.53;;;4.49;100.00
19600;BME280;9947;57.722;12.012;2023-03-14T08:15:21;97499.06;;;4.64;100.00
19600;BME280;9947;57.722;12.012;2023-03-14T08:17:55;97510.22;;;4.51;100.00
19600;BME280;9947;57.722;12.012;2023-03-14T08:20:24;97502.09;;;4.35;100.00
19600;BME280;9947;57.722;12.012;2023-03-14T08:22:51;97504.06;;;4.93;100.00
19600;BME280;9947;57.722;12.012;2023-03-14T08:25:19;97514.97;;;4.65;100.00
19600;BME280;9947;57.722;12.012;2023-03-14T08:27:46;97518.44;;;5.26;100.00
19600;BME280;9947;57.722;12.012;2023-03-14T08:30:15;97517.09;;;5.38;100.00
19600;BME280;9947;57.722;12.012;2023-03-14T08:32:42;97508.97;;;5.64;100.00
19600;BME280;9947;57.722;12.012;2023-03-14T08:35:10;97508.25;;;5.46;100.00
19600;BME280;9947;57.722;12.012;2023-03-14T08:37:37;97513.34;;;5.07;100.00
19600;BME280;9947;57.722;12.012;2023-03-14T08:40:07;97530.81;;;4.93;100.00
19600;BME280;9947;57.722;12.012;2023-03-14T08:42:35;97521.06;;;4.76;100.00
19600;BME280;9947;57.722;12.012;2023-03-14T08:45:03;97524.06;;;4.73;100.00
19600;BME280;9947;57.722;12.012;2023-03-14T08:47:32;97532.41;;;4.44;100.00
19600;BME280;9947;57.722;12.012;2023-03-14T08:49:59;97541.88;;;4.38;100.00
19600;BME280;9947;57.722;12.012;2023-03-14T08:52:25;97539.69;;;4.33;100.00
19600;BME280;9947;57.722;12.012;2023-03-14T08:54:55;97542.41;;;4.68;100.00
19600;BME280;9947;57.722;12.012;2023-03-14T08:57:22;97550.38;;;4.59;100.00
19600;BME280;9947;57.722;12.012;2023-03-14T08:59:52;97548.78;;;5.01;100.00
19600;BME280;9947;57.722;12.012;2023-03-14T09:02:19;97552.00;;;4.78;100.00
19600;BME280;9947;57.722;12.012;2023-03-14T09:04:51;97549.00;;;4.81;100.00
19600;BME280;9947;57.722;12.012;2023-03-14T09:07:18;97545.94;;;5.02;100.00
19600;BME280;9947;57.722;12.012;2023-03-14T09:09:52;97550.28;;;4.95;100.00
19600;BME280;9947;57.722;12.012;2023-03-14T09:12:19;97563.22;;;4.82;100.00
19600;BME280;9947;57.722;12.012;2023-03-14T09:14:48;97560.84;;;4.71;100.00
19600;BME280;9947;57.722;12.012;2023-03-14T09:17:15;97564.63;;;4.94;100.00
19600;BME280;9947;57.722;12.012;2023-03-14T09:19:42;97572.63;;;4.86;100.00
19600;BME280;9947;57.722;12.012;2023-03-14T09:22:10;97567.84;;;4.98;100.00
19600;BME280;9947;57.722;12.012;2023-03-14T09:24:37;97579.13;;;5.17;100.00
19600;BME280;9947;57.722;12.012;2023-03-14T09:27:04;97585.41;;;5.00;100.00
19600;BME280;9947;57.722;12.012;2023-03-14T09:29:31;97586.97;;;5.11;100.00
19600;BME280;9947;57.722;12.012;2023-03-14T09:31:58;97586.09;;;5.02;100.00
19600;BME280;9947;57.722;12.012;2023-03-14T09:34:25;97595.16;;;5.09;100.00
19600;BME280;9947;57.722;12.012;2023-03-14T09:36:52;97588.81;;;5.10;100.00
19600;BME280;9947;57.722;12.012;2023-03-14T09:39:21;97591.28;;;5.04;100.00
19600;BME280;9947;57.722;12.012;2023-03-14T09:41:49;97589.59;;;4.69;100.00
19600;BME280;9947;57.722;12.012;2023-03-14T09:44:22;97598.47;;;4.69;100.00
19600;BME280;9947;57.722;12.012;2023-03-14T09:46:53;97601.91;;;4.61;100.00
19600;BME280;9947;57.722;12.012;2023-03-14T09:49:24;97614.91;;;4.56;100.00
19600;BME280;9947;57.722;12.012;2023-03-14T09:51:54;97614.84;;;4.48;100.00
19600;BME280;9947;57.722;12.012;2023-03-14T09:54:31;97615.22;;;4.53;100.00
19600;BME280;9947;57.722;12.012;2023-03-14T09:56:58;97630.78;;;5.02;100.00
19600;BME280;9947;57.722;12.012;2023-03-14T09:59:26;97633.06;;;5.22;100.00
19600;BME280;9947;57.722;12.012;2023-03-14T10:01:55;97626.50;;;4.91;100.00
19600;BME280;9947;57.722;12.012;2023-03-14T10:04:30;97631.97;;;5.07;100.00
19600;BME280;9947;57.722;12.012;2023-03-14T10:06:58;97632.81;;;5.08;100.00
19600;BME280;9947;57.722;12.012;2023-03-14T10:09:25;97640.28;;;4.96;100.00
19600;BME280;9947;57.722;12.012;2023-03-14T10:11:56;97652.75;;;4.87;100.00
19600;BME280;9947;57.722;12.012;2023-03-14T10:14:30;97658.38;;;5.02;100.00
19600;BME280;9947;57.722;12.012;2023-03-14T10:17:05;97661.53;;;5.23;100.00
19600;BME280;9947;57.722;12.012;2023-03-14T10:19:32;97663.53;;;5.21;100.00
19600;BME280;9947;57.722;12.012;2023-03-14T10:22:13;97665.88;;;5.24;100.00
19600;BME280;9947;57.722;12.012;2023-03-14T10:24:45;97666.81;;;4.89;100.00
19600;BME280;9947;57.722;12.012;2023-03-14T10:27:22;97671.91;;;4.75;100.00
19600;BME280;9947;57.722;12.012;2023-03-14T10:29:57;97686.03;;;5.11;100.00
19600;BME280;9947;57.722;12.012;2023-03-14T10:32:31;97693.34;;;5.26;100.00
19600;BME280;9947;57.722;12.012;2023-03-14T10:35:20;97697.53;;;5.63;100.00
19600;BME280;9947;57.722;12.012;2023-03-14T10:37:50;97702.50;;;5.50;100.00
19600;BME280;9947;57.722;12.012;2023-03-14T10:40:23;97699.69;;;5.51;100.00
19600;BME280;9947;57.722;12.012;2023-03-14T10:42:52;97712.09;;;5.26;100.00
19600;BME280;9947;57.722;12.012;2023-03-14T10:45:31;97714.78;;;5.26;100.00
19600;BME280;9947;57.722;12.012;2023-03-14T10:48:06;97717.34;;;4.92;100.00
19600;BME280;9947;57.722;12.012;2023-03-14T10:50:48;97717.16;;;4.86;100.00
19600;BME280;9947;57.722;12.012;2023-03-14T10:53:17;97715.03;;;4.72;100.00
19600;BME280;9947;57.722;12.012;2023-03-14T10:55:46;97726.19;;;4.67;100.00
19600;BME280;9947;57.722;12.012;2023-03-14T10:58:24;97732.38;;;4.68;100.00
19600;BME280;9947;57.722;12.012;2023-03-14T11:01:00;97739.03;;;4.63;100.00
19600;BME280;9947;57.722;12.012;2023-03-14T11:03:36;97738.84;;;5.01;100.00
19600;BME280;9947;57.722;12.012;2023-03-14T11:06:10;97738.38;;;5.05;100.00
19600;BME280;9947;57.722;12.012;2023-03-14T11:08:44;97737.72;;;5.29;100.00
19600;BME280;9947;57.722;12.012;2023-03-14T11:11:18;97740.47;;;5.19;100.00
19600;BME280;9947;57.722;12.012;2023-03-14T11:13:58;97755.56;;;5.46;100.00
19600;BME280;9947;57.722;12.012;2023-03-14T11:16:46;97759.13;;;5.55;100.00
19600;BME280;9947;57.722;12.012;2023-03-14T11:19:35;97763.53;;;5.64;100.00
19600;BME280;9947;57.722;12.012;2023-03-14T11:22:17;97771.63;;;5.72;100.00
19600;BME280;9947;57.722;12.012;2023-03-14T11:24:57;97776.63;;;5.41;100.00
19600;BME280;9947;57.722;12.012;2023-03-14T11:27:33;97777.72;;;5.82;100.00
19600;BME280;9947;57.722;12.012;2023-03-14T11:30:06;97782.75;;;5.85;100.00
19600;BME280;9947;57.722;12.012;2023-03-14T11:32:44;97787.78;;;5.88;100.00
19600;BME280;9947;57.722;12.012;2023-03-14T11:35:17;97791.13;;;5.82;100.00
19600;BME280;9947;57.722;12.012;2023-03-14T11:37:52;97801.84;;;5.82;100.00
19600;BME280;9947;57.722;12.012;2023-03-14T11:40:22;97808.31;;;5.98;100.00
19600;BME280;9947;57.722;12.012;2023-03-14T11:42:56;97815.91;;;6.02;100.00
19600;BME280;9947;57.722;12.012;2023-03-14T11:45:30;97817.09;;;6.08;100.00
19600;BME280;9947;57.722;12.012;2023-03-14T11:48:09;97818.28;;;6.13;100.00
19600;BME280;9947;57.722;12.012;2023-03-14T11:50:40;97821.25;;;6.44;100.00
19600;BME280;9947;57.722;12.012;2023-03-14T11:53:14;97825.06;;;6.34;100.00
19600;BME280;9947;57.722;12.012;2023-03-14T11:55:42;97835.88;;;6.16;100.00
19600;BME280;9947;57.722;12.012;2023-03-14T11:58:14;97841.22;;;6.50;100.00
19600;BME280;9947;57.722;12.012;2023-03-14T12:00:44;97840.53;;;6.06;100.00
19600;BME280;9947;57.722;12.012;2023-03-14T12:03:26;97842.19;;;5.99;100.00
19600;BME280;9947;57.722;12.012;2023-03-14T12:06:03;97847.56;;;5.81;100.00
19600;BME280;9947;57.722;12.012;2023-03-14T12:08:39;97852.78;;;5.82;100.00
19600;BME280;9947;57.722;12.012;2023-03-14T12:11:12;97860.75;;;5.48;100.00
19600;BME280;9947;57.722;12.012;2023-03-14T12:13:40;97869.63;;;5.31;100.00
19600;BME280;9947;57.722;12.012;2023-03-14T12:16:30;97864.91;;;5.25;100.00
19600;BME280;9947;57.722;12.012;2023-03-14T12:21:58;97877.22;;;5.00;100.00
19600;BME280;9947;57.722;12.012;2023-03-14T12:24:29;97895.19;;;5.08;100.00
19600;BME280;9947;57.722;12.012;2023-03-14T12:27:01;97896.44;;;5.31;100.00
19600;BME280;9947;57.722;12.012;2023-03-14T12:29:29;97904.06;;;5.44;100.00
19600;BME280;9947;57.722;12.012;2023-03-14T12:32:22;97904.84;;;5.54;100.00
19600;BME280;9947;57.722;12.012;2023-03-14T12:34:50;97920.59;;;5.57;100.00
19600;BME280;9947;57.722;12.012;2023-03-14T12:37:27;97917.53;;;5.34;100.00
19600;BME280;9947;57.722;12.012;2023-03-14T12:40:05;97930.53;;;5.11;100.00
19600;BME280;9947;57.722;12.012;2023-03-14T12:42:43;97929.38;;;5.67;100.00
19600;BME280;9947;57.722;12.012;2023-03-14T12:45:22;97942.31;;;5.18;100.00
19600;BME280;9947;57.722;12.012;2023-03-14T12:48:03;97949.53;;;5.53;100.00
19600;BME280;9947;57.722;12.012;2023-03-14T12:50:35;97955.03;;;5.34;100.00
19600;BME280;9947;57.722;12.012;2023-03-14T12:53:42;97950.06;;;5.21;100.00
19600;BME280;9947;57.722;12.012;2023-03-14T12:56:25;97971.66;;;5.38;100.00
19600;BME280;9947;57.722;12.012;2023-03-14T12:59:14;97963.53;;;5.30;100.00
19600;BME280;9947;57.722;12.012;2023-03-14T13:01:47;97966.72;;;5.15;100.00
19600;BME280;9947;57.722;12.012;2023-03-14T13:04:16;97964.47;;;4.93;100.00
19600;BME280;9947;57.722;12.012;2023-03-14T13:06:49;97974.75;;;4.98;100.00
19600;BME280;9947;57.722;12.012;2023-03-14T13:12:38;97970.66;;;4.66;100.00
19600;BME280;9947;57.722;12.012;2023-03-14T13:15:17;97989.16;;;4.87;100.00
19600;BME280;9947;57.722;12.012;2023-03-14T13:17:46;97995.66;;;4.84;100.00
19600;BME280;9947;57.722;12.012;2023-03-14T13:20:20;98000.72;;;4.87;100.00
19600;BME280;9947;57.722;12.012;2023-03-14T13:22:49;98007.34;;;4.83;100.00
19600;BME280;9947;57.722;12.012;2023-03-14T13:25:23;98017.66;;;4.78;100.00